sensor_id;sensor_type;location;lat;lon;timestamp;temperature;humidity
27567;DHT22;15006;48.584;9.186;2024-03-23T00:52:43;4.00;79.50
27567;DHT22;15006;48.584;9.186;2024-03-23T00:55:11;4.00;79.40
27567;DHT22;15006;48.584;9.186;2024-03-23T00:57:37;4.00;79.40
27567;DHT22;15006;48.584;9.186;2024-03-23T01:00:04;4.00;79.60
27567;DHT22;15006;48.584;9.186;2024-03-23T01:02:32;4.00;79.90
27567;DHT22;15006;48.584;9.186;2024-03-23T01:04:58;4.00;79.90
27567;DHT22;15006;48.584;9.186;2024-03-23T01:07:24;4.10;79.90
27567;DHT22;15006;48.584;9.186;2024-03-23T01:09:50;4.10;79.90
27567;DHT22;15006;48.584;9.186;2024-03-23T01:12:18;4.10;80.00
27567;DHT22;15006;48.584;9.186;2024-03-23T01:14:43;4.10;79.70
27567;DHT22;15006;48.584;9.186;2024-03-23T01:17:10;4.10;79.50
27567;DHT22;15006;48.584;9.186;2024-03-23T01:19:36;4.10;79.30
27567;DHT22;15006;48.584;9.186;2024-03-23T01:22:01;4.10;79.50
27567;DHT22;15006;48.584;9.186;2024-03-23T01:24:28;4.10;79.70
27567;DHT22;15006;48.584;9.186;2024-03-23T01:26:54;4.10;80.00
27567;DHT22;15006;48.584;9.186;2024-03-23T01:29:20;4.10;80.20
27567;DHT22;15006;48.584;9.186;2024-03-23T01:31:46;4.20;80.40
27567;DHT22;15006;48.584;9.186;2024-03-23T01:34:12;4.10;80.40
27567;DHT22;15006;48.584;9.186;2024-03-23T01:36:38;4.20;80.50
27567;DHT22;15006;48.584;9.186;2024-03-23T01:39:04;4.20;80.70
27567;DHT22;15006;48.584;9.186;2024-03-23T01:41:30;4.20;80.90
27567;DHT22;15006;48.584;9.186;2024-03-23T01:43:56;4.20;80.90
27567;DHT22;15006;48.584;9.186;2024-03-23T01:46:22;4.30;81.20
27567;DHT22;15006;48.584;9.186;2024-03-23T01:48:49;4.30;81.30
27567;DHT22;15006;48.584;9.186;2024-03-23T01:51:15;4.40;81.50
27567;DHT22;15006;48.584;9.186;2024-03-23T01:53:41;4.50;81.50
27567;DHT22;15006;48.584;9.186;2024-03-23T01:56:07;4.50;81.30
27567;DHT22;15006;48.584;9.186;2024-03-23T01:58:33;4.50;81.10
27567;DHT22;15006;48.584;9.186;2024-03-23T02:00:59;4.60;80.90
27567;DHT22;15006;48.584;9.186;2024-03-23T02:03:27;4.60;80.80
27567;DHT22;15006;48.584;9.186;2024-03-23T02:05:54;4.60;80.80
27567;DHT22;15006;48.584;9.186;2024-03-23T02:08:22;4.60;80.80
27567;DHT22;15006;48.584;9.186;2024-03-23T02:10:49;4.60;80.90
27567;DHT22;15006;48.584;9.186;2024-03-23T02:13:17;4.70;80.90
27567;DHT22;15006;48.584;9.186;2024-03-23T02:15:44;4.70;81.10
27567;DHT22;15006;48.584;9.186;2024-03-23T02:18:11;4.70;81.10
27567;DHT22;15006;48.584;9.186;2024-03-23T02:20:37;4.80;81.10
27567;DHT22;15006;48.584;9.186;2024-03-23T02:23:04;4.80;81.30
27567;DHT22;15006;48.584;9.186;2024-03-23T02:25:32;4.80;81.50
27567;DHT22;15006;48.584;9.186;2024-03-23T02:27:59;4.90;81.80
27567;DHT22;15006;48.584;9.186;2024-03-23T02:30:26;4.90;82.50
27567;DHT22;15006;48.584;9.186;2024-03-23T02:32:52;5.00;81.90
27567;DHT22;15006;48.584;9.186;2024-03-23T02:35:18;5.00;82.30
27567;DHT22;15006;48.584;9.186;2024-03-23T02:37:46;5.00;82.60
27567;DHT22;15006;48.584;9.186;2024-03-23T02:40:15;5.10;83.20
27567;DHT22;15006;48.584;9.186;2024-03-23T02:42:41;5.20;83.40
27567;DHT22;15006;48.584;9.186;2024-03-23T02:45:07;5.30;83.40
27567;DHT22;15006;48.584;9.186;2024-03-23T02:47:33;5.40;83.30
27567;DHT22;15006;48.584;9.186;2024-03-23T02:49:59;5.50;83.30
27567;DHT22;15006;48.584;9.186;2024-03-23T02:52:25;5.60;83.00
27567;DHT22;15006;48.584;9.186;2024-03-23T02:54:51;5.70;82.70
27567;DHT22;15006;48.584;9.186;2024-03-23T02:57:17;5.80;82.50
27567;DHT22;15006;48.584;9.186;2024-03-23T02:59:43;5.90;82.30
27567;DHT22;15006;48.584;9.186;2024-03-23T03:02:09;6.00;82.00
27567;DHT22;15006;48.584;9.186;2024-03-23T03:04:35;6.10;81.90
27567;DHT22;15006;48.584;9.186;2024-03-23T03:07:01;6.10;81.90
27567;DHT22;15006;48.584;9.186;2024-03-23T03:09:27;6.10;81.70
27567;DHT22;15006;48.584;9.186;2024-03-23T03:11:53;6.20;81.40
27567;DHT22;15006;48.584;9.186;2024-03-23T03:14:19;6.30;81.30
27567;DHT22;15006;48.584;9.186;2024-03-23T03:16:45;6.30;81.10
27567;DHT22;15006;48.584;9.186;2024-03-23T03:19:11;6.40;81.00
27567;DHT22;15006;48.584;9.186;2024-03-23T03:21:37;6.40;80.90
27567;DHT22;15006;48.584;9.186;2024-03-23T03:24:05;6.40;80.50
27567;DHT22;15006;48.584;9.186;2024-03-23T03:26:32;6.40;80.50
27567;DHT22;15006;48.584;9.186;2024-03-23T03:28:58;6.40;80.50
27567;DHT22;15006;48.584;9.186;2024-03-23T03:31:24;6.40;80.50
27567;DHT22;15006;48.584;9.186;2024-03-23T03:33:50;6.40;80.70
27567;DHT22;15006;48.584;9.186;2024-03-23T03:36:18;6.40;80.50
27567;DHT22;15006;48.584;9.186;2024-03-23T03:38:45;6.40;80.50
27567;DHT22;15006;48.584;9.186;2024-03-23T03:41:11;6.40;80.50
27567;DHT22;15006;48.584;9.186;2024-03-23T03:43:37;6.40;80.40
27567;DHT22;15006;48.584;9.186;2024-03-23T03:46:03;6.40;79.90
27567;DHT22;15006;48.584;9.186;2024-03-23T03:48:29;6.40;79.40
27567;DHT22;15006;48.584;9.186;2024-03-23T03:50:55;6.30;79.00
27567;DHT22;15006;48.584;9.186;2024-03-23T03:53:21;6.30;78.90
27567;DHT22;15006;48.584;9.186;2024-03-23T03:55:47;6.20;78.70
27567;DHT22;15006;48.584;9.186;2024-03-23T03:58:13;6.20;78.80
27567;DHT22;15006;48.584;9.186;2024-03-23T04:00:39;6.10;78.70
27567;DHT22;15006;48.584;9.186;2024-03-23T04:03:06;6.00;78.70
27567;DHT22;15006;48.584;9.186;2024-03-23T04:05:32;6.00;78.80
27567;DHT22;15006;48.584;9.186;2024-03-23T04:07:58;5.90;78.60
27567;DHT22;15006;48.584;9.186;2024-03-23T04:10:24;5.80;78.80
27567;DHT22;15006;48.584;9.186;2024-03-23T04:12:50;5.70;78.90
27567;DHT22;15006;48.584;9.186;2024-03-23T04:15:16;5.60;78.80
27567;DHT22;15006;48.584;9.186;2024-03-23T04:17:42;5.50;78.80
27567;DHT22;15006;48.584;9.186;2024-03-23T04:20:09;5.50;78.90
27567;DHT22;15006;48.584;9.186;2024-03-23T04:22:39;5.40;79.10
27567;DHT22;15006;48.584;9.186;2024-03-23T04:25:06;5.30;79.30
27567;DHT22;15006;48.584;9.186;2024-03-23T04:27:35;5.20;79.20
27567;DHT22;15006;48.584;9.186;2024-03-23T04:30:02;5.10;79.50
27567;DHT22;15006;48.584;9.186;2024-03-23T04:32:36;5.00;79.40
27567;DHT22;15006;48.584;9.186;2024-03-23T04:35:02;4.90;79.50
27567;DHT22;15006;48.584;9.186;2024-03-23T04:37:37;4.90;79.60
27567;DHT22;15006;48.584;9.186;2024-03-23T04:40:06;4.80;80.10
27567;DHT22;15006;48.584;9.186;2024-03-23T04:42:33;4.70;80.60
27567;DHT22;15006;48.584;9.186;2024-03-23T04:44:59;4.60;81.10
27567;DHT22;15006;48.584;9.186;2024-03-23T04:47:26;4.60;81.30
27567;DHT22;15006;48.584;9.186;2024-03-23T04:49:52;4.50;81.60
27567;DHT22;15006;48.584;9.186;2024-03-23T04:52:18;4.50;82.20
27567;DHT22;15006;48.584;9.186;2024-03-23T04:54:44;4.50;83.00
27567;DHT22;15006;48.584;9.186;2024-03-23T04:57:13;4.50;83.90
27567;DHT22;15006;48.584;9.186;2024-03-23T04:59:39;4.50;84.80
27567;DHT22;15006;48.584;9.186;2024-03-23T05:02:05;4.60;85.60
27567;DHT22;15006;48.584;9.186;2024-03-23T05:04:31;4.60;86.20
27567;DHT22;15006;48.584;9.186;2024-03-23T05:06:57;4.70;86.60
27567;DHT22;15006;48.584;9.186;2024-03-23T05:09:23;4.80;87.20
27567;DHT22;15006;48.584;9.186;2024-03-23T05:11:50;4.80;87.50
27567;DHT22;15006;48.584;9.186;2024-03-23T05:14:15;5.00;88.60
27567;DHT22;15006;48.584;9.186;2024-03-23T05:16:41;5.10;89.70
27567;DHT22;15006;48.584;9.186;2024-03-23T05:19:08;5.30;90.10
27567;DHT22;15006;48.584;9.186;2024-03-23T05:21:33;5.50;90.30
27567;DHT22;15006;48.584;9.186;2024-03-23T05:24:00;5.70;91.10
27567;DHT22;15006;48.584;9.186;2024-03-23T05:26:26;5.90;91.80
27567;DHT22;15006;48.584;9.186;2024-03-23T05:28:52;6.10;92.20
27567;DHT22;15006;48.584;9.186;2024-03-23T05:31:25;6.40;92.40
27567;DHT22;15006;48.584;9.186;2024-03-23T05:33:54;6.60;92.70
27567;DHT22;15006;48.584;9.186;2024-03-23T05:36:21;6.70;92.50
27567;DHT22;15006;48.584;9.186;2024-03-23T05:38:47;6.80;92.60
27567;DHT22;15006;48.584;9.186;2024-03-23T05:41:13;6.90;92.90
27567;DHT22;15006;48.584;9.186;2024-03-23T05:43:39;6.90;92.60
27567;DHT22;15006;48.584;9.186;2024-03-23T05:46:05;7.00;92.70
27567;DHT22;15006;48.584;9.186;2024-03-23T05:48:31;7.00;92.90
27567;DHT22;15006;48.584;9.186;2024-03-23T05:50:58;7.00;92.90
27567;DHT22;15006;48.584;9.186;2024-03-23T05:53:24;6.90;93.00
27567;DHT22;15006;48.584;9.186;2024-03-23T05:55:51;6.90;93.00
27567;DHT22;15006;48.584;9.186;2024-03-23T05:58:19;6.80;93.00
27567;DHT22;15006;48.584;9.186;2024-03-23T06:00:48;6.80;93.10
27567;DHT22;15006;48.584;9.186;2024-03-23T06:03:14;6.70;93.20
27567;DHT22;15006;48.584;9.186;2024-03-23T06:05:40;6.70;93.40
27567;DHT22;15006;48.584;9.186;2024-03-23T06:08:06;6.70;93.70
27567;DHT22;15006;48.584;9.186;2024-03-23T06:10:35;6.60;93.90
27567;DHT22;15006;48.584;9.186;2024-03-23T06:13:01;6.50;94.00
27567;DHT22;15006;48.584;9.186;2024-03-23T06:15:27;6.50;94.40
27567;DHT22;15006;48.584;9.186;2024-03-23T06:17:53;6.40;94.50
27567;DHT22;15006;48.584;9.186;2024-03-23T06:20:19;6.40;94.80
27567;DHT22;15006;48.584;9.186;2024-03-23T06:22:45;6.40;94.70
27567;DHT22;15006;48.584;9.186;2024-03-23T06:25:11;6.40;94.70
27567;DHT22;15006;48.584;9.186;2024-03-23T06:27:38;6.30;94.60
27567;DHT22;15006;48.584;9.186;2024-03-23T06:30:05;6.40;94.50
27567;DHT22;15006;48.584;9.186;2024-03-23T06:32:32;6.30;94.30
27567;DHT22;15006;48.584;9.186;2024-03-23T06:34:58;6.30;94.10
27567;DHT22;15006;48.584;9.186;2024-03-23T06:37:24;6.20;93.80
27567;DHT22;15006;48.584;9.186;2024-03-23T06:39:50;6.20;93.60
27567;DHT22;15006;48.584;9.186;2024-03-23T06:42:16;6.20;93.50
27567;DHT22;15006;48.584;9.186;2024-03-23T06:44:43;6.20;93.60
27567;DHT22;15006;48.584;9.186;2024-03-23T06:47:09;6.20;93.10
27567;DHT22;15006;48.584;9.186;2024-03-23T06:49:35;6.10;92.60
27567;DHT22;15006;48.584;9.186;2024-03-23T06:52:01;6.10;92.70
27567;DHT22;15006;48.584;9.186;2024-03-23T06:54:27;6.10;92.70
27567;DHT22;15006;48.584;9.186;2024-03-23T06:56:53;6.10;92.70
27567;DHT22;15006;48.584;9.186;2024-03-23T06:59:19;6.00;92.30
27567;DHT22;15006;48.584;9.186;2024-03-23T07:01:45;6.10;92.50
27567;DHT22;15006;48.584;9.186;2024-03-23T07:04:11;6.00;92.10
27567;DHT22;15006;48.584;9.186;2024-03-23T07:06:43;6.00;92.20
27567;DHT22;15006;48.584;9.186;2024-03-23T07:09:10;6.00;92.10
27567;DHT22;15006;48.584;9.186;2024-03-23T07:11:36;6.00;91.90
27567;DHT22;15006;48.584;9.186;2024-03-23T07:14:02;5.90;91.90
27567;DHT22;15006;48.584;9.186;2024-03-23T07:16:31;5.90;91.70
27567;DHT22;15006;48.584;9.186;2024-03-23T07:18:57;5.90;91.70
27567;DHT22;15006;48.584;9.186;2024-03-23T07:21:23;5.90;91.70
27567;DHT22;15006;48.584;9.186;2024-03-23T07:23:49;5.90;91.50
27567;DHT22;15006;48.584;9.186;2024-03-23T07:26:14;5.90;91.10
27567;DHT22;15006;48.584;9.186;2024-03-23T07:28:40;5.90;91.00
27567;DHT22;15006;48.584;9.186;2024-03-23T07:31:12;5.90;91.20
27567;DHT22;15006;48.584;9.186;2024-03-23T07:33:45;5.90;91.20
27567;DHT22;15006;48.584;9.186;2024-03-23T07:36:12;5.90;91.30
27567;DHT22;15006;48.584;9.186;2024-03-23T07:38:41;5.90;91.30
27567;DHT22;15006;48.584;9.186;2024-03-23T07:41:09;5.80;91.40
27567;DHT22;15006;48.584;9.186;2024-03-23T07:43:39;5.80;91.30
27567;DHT22;15006;48.584;9.186;2024-03-23T07:46:06;5.90;91.20
27567;DHT22;15006;48.584;9.186;2024-03-23T07:48:32;5.90;90.90
27567;DHT22;15006;48.584;9.186;2024-03-23T07:50:59;5.90;90.80
27567;DHT22;15006;48.584;9.186;2024-03-23T07:53:27;5.90;90.70
27567;DHT22;15006;48.584;9.186;2024-03-23T07:56:19;5.90;91.00
27567;DHT22;15006;48.584;9.186;2024-03-23T07:58:47;6.00;90.90
27567;DHT22;15006;48.584;9.186;2024-03-23T08:01:15;6.00;91.00
27567;DHT22;15006;48.584;9.186;2024-03-23T08:03:45;6.00;91.20
27567;DHT22;15006;48.584;9.186;2024-03-23T08:06:16;6.10;90.80
27567;DHT22;15006;48.584;9.186;2024-03-23T08:08:45;6.10;90.60
27567;DHT22;15006;48.584;9.186;2024-03-23T08:11:12;6.20;90.50
27567;DHT22;15006;48.584;9.186;2024-03-23T08:13:39;6.20;90.30
27567;DHT22;15006;48.584;9.186;2024-03-23T08:16:06;6.20;90.30
27567;DHT22;15006;48.584;9.186;2024-03-23T08:18:34;6.30;89.80
27567;DHT22;15006;48.584;9.186;2024-03-23T08:21:05;6.30;88.70
27567;DHT22;15006;48.584;9.186;2024-03-23T08:23:33;6.30;88.10
27567;DHT22;15006;48.584;9.186;2024-03-23T08:26:03;6.30;87.80
27567;DHT22;15006;48.584;9.186;2024-03-23T08:28:30;6.30;88.10
27567;DHT22;15006;48.584;9.186;2024-03-23T08:30:56;6.40;87.40
27567;DHT22;15006;48.584;9.186;2024-03-23T08:33:23;6.40;85.80
27567;DHT22;15006;48.584;9.186;2024-03-23T08:35:58;6.40;85.50
27567;DHT22;15006;48.584;9.186;2024-03-23T08:38:25;6.40;83.70
27567;DHT22;15006;48.584;9.186;2024-03-23T08:41:03;6.50;83.40
27567;DHT22;15006;48.584;9.186;2024-03-23T08:43:35;6.50;82.60
27567;DHT22;15006;48.584;9.186;2024-03-23T08:46:10;6.60;83.10
27567;DHT22;15006;48.584;9.186;2024-03-23T08:48:39;6.60;81.70
27567;DHT22;15006;48.584;9.186;2024-03-23T08:51:13;6.70;81.10
27567;DHT22;15006;48.584;9.186;2024-03-23T08:53:40;6.70;81.40
27567;DHT22;15006;48.584;9.186;2024-03-23T08:56:07;6.70;80.70
27567;DHT22;15006;48.584;9.186;2024-03-23T08:58:35;6.70;77.60
27567;DHT22;15006;48.584;9.186;2024-03-23T09:01:07;6.60;77.90
27567;DHT22;15006;48.584;9.186;2024-03-23T09:03:38;6.50;75.60
27567;DHT22;15006;48.584;9.186;2024-03-23T09:06:11;6.50;76.80
27567;DHT22;15006;48.584;9.186;2024-03-23T09:08:38;6.40;75.60
27567;DHT22;15006;48.584;9.186;2024-03-23T09:11:15;6.40;76.90
27567;DHT22;15006;48.584;9.186;2024-03-23T09:13:41;6.40;76.90
27567;DHT22;15006;48.584;9.186;2024-03-23T09:16:09;6.40;76.70
27567;DHT22;15006;48.584;9.186;2024-03-23T09:18:36;6.50;77.00
27567;DHT22;15006;48.584;9.186;2024-03-23T09:21:12;6.50;75.00
27567;DHT22;15006;48.584;9.186;2024-03-23T09:23:43;6.50;73.30
27567;DHT22;15006;48.584;9.186;2024-03-23T09:26:09;6.50;73.10
27567;DHT22;15006;48.584;9.186;2024-03-23T09:28:35;6.50;72.80
27567;DHT22;15006;48.584;9.186;2024-03-23T09:31:05;6.40;73.20
27567;DHT22;15006;48.584;9.186;2024-03-23T09:33:39;6.40;73.80
27567;DHT22;15006;48.584;9.186;2024-03-23T09:36:06;6.40;75.80
27567;DHT22;15006;48.584;9.186;2024-03-23T09:38:33;6.50;77.00
27567;DHT22;15006;48.584;9.186;2024-03-23T09:41:00;6.70;79.80
27567;DHT22;15006;48.584;9.186;2024-03-23T09:43:26;7.10;81.20
27567;DHT22;15006;48.584;9.186;2024-03-23T09:45:52;7.60;80.40
27567;DHT22;15006;48.584;9.186;2024-03-23T09:48:19;8.10;78.80
27567;DHT22;15006;48.584;9.186;2024-03-23T09:50:45;8.50;73.60
27567;DHT22;15006;48.584;9.186;2024-03-23T09:53:13;8.90;67.10
27567;DHT22;15006;48.584;9.186;2024-03-23T09:55:43;9.20;69.20
27567;DHT22;15006;48.584;9.186;2024-03-23T09:58:16;9.30;64.40
27567;DHT22;15006;48.584;9.186;2024-03-23T10:01:02;9.30;61.40
27567;DHT22;15006;48.584;9.186;2024-03-23T10:03:28;9.00;62.50
27567;DHT22;15006;48.584;9.186;2024-03-23T10:06:01;8.50;64.10
27567;DHT22;15006;48.584;9.186;2024-03-23T10:08:29;7.90;65.90
27567;DHT22;15006;48.584;9.186;2024-03-23T10:10:55;7.50;68.20
27567;DHT22;15006;48.584;9.186;2024-03-23T10:13:28;7.10;68.20
27567;DHT22;15006;48.584;9.186;2024-03-23T10:15:58;6.70;70.10
27567;DHT22;15006;48.584;9.186;2024-03-23T10:18:25;6.40;71.10
27567;DHT22;15006;48.584;9.186;2024-03-23T10:23:32;6.10;71.90
27567;DHT22;15006;48.584;9.186;2024-03-23T10:28:58;6.30;72.20
27567;DHT22;15006;48.584;9.186;2024-03-23T10:31:31;6.60;70.90
27567;DHT22;15006;48.584;9.186;2024-03-23T10:33:57;6.90;72.00
27567;DHT22;15006;48.584;9.186;2024-03-23T10:36:24;7.30;71.30
27567;DHT22;15006;48.584;9.186;2024-03-23T10:38:54;7.70;69.30
27567;DHT22;15006;48.584;9.186;2024-03-23T10:41:20;8.00;67.40
27567;DHT22;15006;48.584;9.186;2024-03-23T10:44:20;8.40;68.60
27567;DHT22;15006;48.584;9.186;2024-03-23T10:46:49;8.80;64.50
27567;DHT22;15006;48.584;9.186;2024-03-23T10:49:16;9.20;64.90
27567;DHT22;15006;48.584;9.186;2024-03-23T10:51:41;9.50;62.50
27567;DHT22;15006;48.584;9.186;2024-03-23T10:54:07;9.70;59.70
27567;DHT22;15006;48.584;9.186;2024-03-23T10:56:38;9.60;57.90
27567;DHT22;15006;48.584;9.186;2024-03-23T10:59:06;9.50;56.10
27567;DHT22;15006;48.584;9.186;2024-03-23T11:01:32;9.20;57.70
27567;DHT22;15006;48.584;9.186;2024-03-23T11:03:58;8.90;60.60
27567;DHT22;15006;48.584;9.186;2024-03-23T11:06:35;8.40;60.70
27567;DHT22;15006;48.584;9.186;2024-03-23T11:09:02;7.70;62.40
27567;DHT22;15006;48.584;9.186;2024-03-23T11:11:29;7.00;64.20
27567;DHT22;15006;48.584;9.186;2024-03-23T11:13:58;6.40;67.50
27567;DHT22;15006;48.584;9.186;2024-03-23T11:16:28;5.80;71.30
27567;DHT22;15006;48.584;9.186;2024-03-23T11:19:34;5.50;73.80
27567;DHT22;15006;48.584;9.186;2024-03-23T11:22:05;5.40;78.80
27567;DHT22;15006;48.584;9.186;2024-03-23T11:24:32;5.40;80.20
27567;DHT22;15006;48.584;9.186;2024-03-23T11:26:58;5.60;79.80
27567;DHT22;15006;48.584;9.186;2024-03-23T11:29:30;5.80;79.40
27567;DHT22;15006;48.584;9.186;2024-03-23T11:31:56;6.00;77.90
27567;DHT22;15006;48.584;9.186;2024-03-23T11:34:23;6.20;75.90
27567;DHT22;15006;48.584;9.186;2024-03-23T11:36:49;6.30;74.70
27567;DHT22;15006;48.584;9.186;2024-03-23T11:39:18;6.30;73.90
27567;DHT22;15006;48.584;9.186;2024-03-23T11:41:49;6.20;73.70
27567;DHT22;15006;48.584;9.186;2024-03-23T11:44:19;6.20;70.40
27567;DHT22;15006;48.584;9.186;2024-03-23T11:46:46;6.20;71.50
27567;DHT22;15006;48.584;9.186;2024-03-23T11:49:28;6.10;72.00
27567;DHT22;15006;48.584;9.186;2024-03-23T11:51:56;6.00;70.70
27567;DHT22;15006;48.584;9.186;2024-03-23T11:54:26;6.00;70.00
27567;DHT22;15006;48.584;9.186;2024-03-23T11:57:08;5.90;69.20
27567;DHT22;15006;48.584;9.186;2024-03-23T11:59:38;5.90;69.80
27567;DHT22;15006;48.584;9.186;2024-03-23T12:02:11;5.80;67.40
27567;DHT22;15006;48.584;9.186;2024-03-23T12:04:39;5.60;67.90
27567;DHT22;15006;48.584;9.186;2024-03-23T12:07:16;5.60;68.10
27567;DHT22;15006;48.584;9.186;2024-03-23T12:09:45;5.40;67.00
27567;DHT22;15006;48.584;9.186;2024-03-23T12:12:18;5.40;67.60
27567;DHT22;15006;48.584;9.186;2024-03-23T12:14:45;5.30;68.50
27567;DHT22;15006;48.584;9.186;2024-03-23T12:17:15;5.30;69.10
27567;DHT22;15006;48.584;9.186;2024-03-23T12:19:42;5.20;68.90
27567;DHT22;15006;48.584;9.186;2024-03-23T12:22:08;5.30;70.00
27567;DHT22;15006;48.584;9.186;2024-03-23T12:24:35;5.20;68.60
27567;DHT22;15006;48.584;9.186;2024-03-23T12:27:04;5.30;69.00
27567;DHT22;15006;48.584;9.186;2024-03-23T12:29:31;5.30;68.50
27567;DHT22;15006;48.584;9.186;2024-03-23T12:32:01;5.30;68.70
27567;DHT22;15006;48.584;9.186;2024-03-23T12:34:28;5.20;67.60
27567;DHT22;15006;48.584;9.186;2024-03-23T12:36:56;5.20;68.30
27567;DHT22;15006;48.584;9.186;2024-03-23T12:39:22;5.20;69.00
27567;DHT22;15006;48.584;9.186;2024-03-23T12:41:49;5.20;69.60
27567;DHT22;15006;48.584;9.186;2024-03-23T12:44:22;5.10;70.80
27567;DHT22;15006;48.584;9.186;2024-03-23T12:46:48;5.10;72.50
27567;DHT22;15006;48.584;9.186;2024-03-23T12:49:14;5.10;73.60
27567;DHT22;15006;48.584;9.186;2024-03-23T12:51:53;5.20;75.20
27567;DHT22;15006;48.584;9.186;2024-03-23T12:54:21;5.30;76.30
27567;DHT22;15006;48.584;9.186;2024-03-23T12:56:47;5.40;74.50
27567;DHT22;15006;48.584;9.186;2024-03-23T12:59:14;5.50;73.10
27567;DHT22;15006;48.584;9.186;2024-03-23T13:01:40;5.50;72.70
27567;DHT22;15006;48.584;9.186;2024-03-23T13:04:06;5.50;73.20
27567;DHT22;15006;48.584;9.186;2024-03-23T13:06:32;5.50;73.20
27567;DHT22;15006;48.584;9.186;2024-03-23T13:09:02;5.50;73.80
27567;DHT22;15006;48.584;9.186;2024-03-23T13:11:29;5.60;73.90
27567;DHT22;15006;48.584;9.186;2024-03-23T13:13:55;5.70;73.10
27567;DHT22;15006;48.584;9.186;2024-03-23T13:16:22;5.70;72.00
27567;DHT22;15006;48.584;9.186;2024-03-23T13:18:48;5.70;71.90
27567;DHT22;15006;48.584;9.186;2024-03-23T13:21:14;5.70;72.80
27567;DHT22;15006;48.584;9.186;2024-03-23T13:23:40;5.60;72.50
27567;DHT22;15006;48.584;9.186;2024-03-23T13:26:08;5.60;72.20
27567;DHT22;15006;48.584;9.186;2024-03-23T13:28:34;5.50;72.90
27567;DHT22;15006;48.584;9.186;2024-03-23T13:31:01;5.40;73.50
27567;DHT22;15006;48.584;9.186;2024-03-23T13:33:32;5.30;74.10
27567;DHT22;15006;48.584;9.186;2024-03-23T13:35:58;5.20;77.00
27567;DHT22;15006;48.584;9.186;2024-03-23T13:38:25;5.20;79.90
27567;DHT22;15006;48.584;9.186;2024-03-23T13:40:59;5.40;80.90
27567;DHT22;15006;48.584;9.186;2024-03-23T13:43:27;5.80;79.70
27567;DHT22;15006;48.584;9.186;2024-03-23T13:45:55;6.20;83.30
27567;DHT22;15006;48.584;9.186;2024-03-23T13:48:23;6.70;84.30
27567;DHT22;15006;48.584;9.186;2024-03-23T13:51:00;7.40;84.00
27567;DHT22;15006;48.584;9.186;2024-03-23T13:53:27;8.00;78.10
27567;DHT22;15006;48.584;9.186;2024-03-23T13:55:53;8.60;77.20
27567;DHT22;15006;48.584;9.186;2024-03-23T13:58:19;9.10;73.80
27567;DHT22;15006;48.584;9.186;2024-03-23T14:00:46;9.40;69.30
27567;DHT22;15006;48.584;9.186;2024-03-23T14:03:13;9.50;63.30
27567;DHT22;15006;48.584;9.186;2024-03-23T14:05:40;9.40;60.70
27567;DHT22;15006;48.584;9.186;2024-03-23T14:08:10;9.10;59.40
27567;DHT22;15006;48.584;9.186;2024-03-23T14:10:40;8.70;60.70
27567;DHT22;15006;48.584;9.186;2024-03-23T14:13:07;8.40;60.50
27567;DHT22;15006;48.584;9.186;2024-03-23T14:15:33;8.00;60.60
27567;DHT22;15006;48.584;9.186;2024-03-23T14:17:59;7.60;60.70
27567;DHT22;15006;48.584;9.186;2024-03-23T14:20:25;7.20;62.20
27567;DHT22;15006;48.584;9.186;2024-03-23T14:22:53;6.90;62.30
27567;DHT22;15006;48.584;9.186;2024-03-23T14:25:19;6.60;63.20
27567;DHT22;15006;48.584;9.186;2024-03-23T14:27:46;6.40;66.10
27567;DHT22;15006;48.584;9.186;2024-03-23T14:30:12;6.30;68.30
27567;DHT22;15006;48.584;9.186;2024-03-23T14:32:39;6.40;67.30
27567;DHT22;15006;48.584;9.186;2024-03-23T14:35:06;6.60;67.80
27567;DHT22;15006;48.584;9.186;2024-03-23T14:37:38;6.80;69.30
27567;DHT22;15006;48.584;9.186;2024-03-23T14:40:07;7.10;67.50
27567;DHT22;15006;48.584;9.186;2024-03-23T14:42:34;7.40;67.40
27567;DHT22;15006;48.584;9.186;2024-03-23T14:45:00;7.70;65.20
27567;DHT22;15006;48.584;9.186;2024-03-23T14:47:26;7.90;64.20
27567;DHT22;15006;48.584;9.186;2024-03-23T14:49:52;8.10;62.80
27567;DHT22;15006;48.584;9.186;2024-03-23T14:52:19;8.20;61.90
27567;DHT22;15006;48.584;9.186;2024-03-23T14:54:46;8.10;60.40
27567;DHT22;15006;48.584;9.186;2024-03-23T14:57:12;7.90;60.80
27567;DHT22;15006;48.584;9.186;2024-03-23T14:59:38;7.70;60.10
27567;DHT22;15006;48.584;9.186;2024-03-23T15:02:07;7.40;60.90
27567;DHT22;15006;48.584;9.186;2024-03-23T15:04:33;7.20;62.70
27567;DHT22;15006;48.584;9.186;2024-03-23T15:07:00;6.90;64.60
27567;DHT22;15006;48.584;9.186;2024-03-23T15:09:26;6.40;67.20
27567;DHT22;15006;48.584;9.186;2024-03-23T15:11:52;5.80;67.90
27567;DHT22;15006;48.584;9.186;2024-03-23T15:14:20;5.30;70.10
27567;DHT22;15006;48.584;9.186;2024-03-23T15:16:46;4.80;74.40
27567;DHT22;15006;48.584;9.186;2024-03-23T15:19:15;4.50;79.00
27567;DHT22;15006;48.584;9.186;2024-03-23T15:21:43;4.30;81.60
27567;DHT22;15006;48.584;9.186;2024-03-23T15:24:09;4.40;82.80
27567;DHT22;15006;48.584;9.186;2024-03-23T15:26:40;4.50;84.30
27567;DHT22;15006;48.584;9.186;2024-03-23T15:29:07;4.70;84.50
27567;DHT22;15006;48.584;9.186;2024-03-23T15:31:38;5.00;84.30
27567;DHT22;15006;48.584;9.186;2024-03-23T15:34:04;5.20;85.60
27567;DHT22;15006;48.584;9.186;2024-03-23T15:36:30;5.50;84.50
27567;DHT22;15006;48.584;9.186;2024-03-23T15:38:56;5.80;84.60
27567;DHT22;15006;48.584;9.186;2024-03-23T15:41:23;6.10;84.10
27567;DHT22;15006;48.584;9.186;2024-03-23T15:43:50;6.30;80.60
27567;DHT22;15006;48.584;9.186;2024-03-23T15:46:16;6.30;76.90
27567;DHT22;15006;48.584;9.186;2024-03-23T15:48:45;6.20;75.80
27567;DHT22;15006;48.584;9.186;2024-03-23T15:51:14;6.00;75.60
27567;DHT22;15006;48.584;9.186;2024-03-23T15:53:40;5.80;76.30
27567;DHT22;15006;48.584;9.186;2024-03-23T15:56:07;5.70;77.60
27567;DHT22;15006;48.584;9.186;2024-03-23T15:58:33;5.50;77.60
27567;DHT22;15006;48.584;9.186;2024-03-23T16:01:07;5.40;77.00
27567;DHT22;15006;48.584;9.186;2024-03-23T16:03:37;5.20;77.60
27567;DHT22;15006;48.584;9.186;2024-03-23T16:06:04;5.20;77.40
27567;DHT22;15006;48.584;9.186;2024-03-23T16:08:33;5.00;77.30
27567;DHT22;15006;48.584;9.186;2024-03-23T16:11:06;4.90;77.90
27567;DHT22;15006;48.584;9.186;2024-03-23T16:13:33;4.70;78.90
27567;DHT22;15006;48.584;9.186;2024-03-23T16:16:04;4.60;79.70
27567;DHT22;15006;48.584;9.186;2024-03-23T16:18:34;4.50;78.60
27567;DHT22;15006;48.584;9.186;2024-03-23T16:21:03;4.40;78.40
27567;DHT22;15006;48.584;9.186;2024-03-23T16:23:30;4.20;78.60
27567;DHT22;15006;48.584;9.186;2024-03-23T16:25:57;4.10;78.70
27567;DHT22;15006;48.584;9.186;2024-03-23T16:28:31;3.90;78.90
27567;DHT22;15006;48.584;9.186;2024-03-23T16:33:29;3.70;79.80
27567;DHT22;15006;48.584;9.186;2024-03-23T16:38:33;3.50;80.80
27567;DHT22;15006;48.584;9.186;2024-03-23T16:41:13;3.50;81.90
27567;DHT22;15006;48.584;9.186;2024-03-23T16:43:41;3.60;82.80
27567;DHT22;15006;48.584;9.186;2024-03-23T16:46:12;3.60;82.80
27567;DHT22;15006;48.584;9.186;2024-03-23T16:48:44;3.60;82.10
27567;DHT22;15006;48.584;9.186;2024-03-23T16:51:10;3.70;81.90